Map

Track Data

SID SEASON NUMBER BASIN SUBBASIN NAME ISO_TIME NATURE LAT LON WMO_WIND WMO_PRES WMO_AGENCY TRACK_TYPE DIST2LAND LANDFALL IFLAG USA_AGENCY USA_ATCF_ID USA_LAT USA_LON USA_RECORD USA_STATUS USA_WIND USA_PRES USA_SSHS USA_R34_NE USA_R34_SE USA_R34_SW USA_R34_NW USA_R50_NE USA_R50_SE USA_R50_SW USA_R50_NW USA_R64_NE USA_R64_SE USA_R64_SW USA_R64_NW USA_POCI USA_ROCI USA_RMW USA_EYE TOKYO_LAT TOKYO_LON TOKYO_GRADE TOKYO_WIND TOKYO_PRES TOKYO_R50_DIR TOKYO_R50_LONG TOKYO_R50_SHORT TOKYO_R30_DIR TOKYO_R30_LONG TOKYO_R30_SHORT TOKYO_LAND CMA_LAT CMA_LON CMA_CAT CMA_WIND CMA_PRES HKO_LAT HKO_LON HKO_CAT HKO_WIND HKO_PRES NEWDELHI_LAT NEWDELHI_LON NEWDELHI_GRADE NEWDELHI_WIND NEWDELHI_PRES NEWDELHI_CI NEWDELHI_DP NEWDELHI_POCI REUNION_LAT REUNION_LON REUNION_TYPE REUNION_WIND REUNION_PRES REUNION_TNUM REUNION_CI REUNION_RMW REUNION_R34_NE REUNION_R34_SE REUNION_R34_SW REUNION_R34_NW REUNION_R50_NE REUNION_R50_SE REUNION_R50_SW REUNION_R50_NW REUNION_R64_NE REUNION_R64_SE REUNION_R64_SW REUNION_R64_NW BOM_LAT BOM_LON BOM_TYPE BOM_WIND BOM_PRES BOM_TNUM BOM_CI BOM_RMW BOM_R34_NE BOM_R34_SE BOM_R34_SW BOM_R34_NW BOM_R50_NE BOM_R50_SE BOM_R50_SW BOM_R50_NW BOM_R64_NE BOM_R64_SE BOM_R64_SW BOM_R64_NW BOM_ROCI BOM_POCI BOM_EYE BOM_POS_METHOD BOM_PRES_METHOD NADI_LAT NADI_LON NADI_CAT NADI_WIND NADI_PRES WELLINGTON_LAT WELLINGTON_LON WELLINGTON_WIND WELLINGTON_PRES DS824_LAT DS824_LON DS824_STAGE DS824_WIND DS824_PRES TD9636_LAT TD9636_LON TD9636_STAGE TD9636_WIND TD9636_PRES TD9635_LAT TD9635_LON TD9635_WIND TD9635_PRES TD9635_ROCI NEUMANN_LAT NEUMANN_LON NEUMANN_CLASS NEUMANN_WIND NEUMANN_PRES MLC_LAT MLC_LON MLC_CLASS MLC_WIND MLC_PRES USA_GUST BOM_GUST BOM_GUST_PER REUNION_GUST REUNION_GUST_PER USA_SEAHGT USA_SEARAD_NE USA_SEARAD_SE USA_SEARAD_SW USA_SEARAD_NW STORM_SPEED STORM_DIR
1887264N20088 1887 51 NI BB NOT_NAMED 1887-09-21 00:00:00 TS 19.8000 88.0000 main 144 137 _________O____ -1 19.8000 88.0000 TC 64 1 33
1887264N20088 1887 51 NI BB NOT_NAMED 1887-09-21 03:00:00 TS 19.8667 88.0333 main 137 137 _________PO___ -1 19.9000 88.0500 TC 64 19.8000 88.0000 4 2 26
1887264N20088 1887 51 NI BB NOT_NAMED 1887-09-21 06:00:00 TS 19.9631 88.0800 main 138 132 _________OP___ -1 20.0000 88.1000 TC 64 19.9078 88.0499 4 2 25
1887264N20088 1887 51 NI BB NOT_NAMED 1887-09-21 09:00:00 TS 20.0625 88.1285 main 132 132 _________PP___ -1 20.1000 88.1500 TC 64 20.0125 88.0999 4 2 25
1887264N20088 1887 51 NI BB NOT_NAMED 1887-09-21 12:00:00 TS 20.1555 88.1750 main 136 136 _________OP___ -1 20.2000 88.2000 TC 64 20.1109 88.1500 4 2 24
1887264N20088 1887 51 NI BB NOT_NAMED 1887-09-21 15:00:00 TS 20.2537 88.2250 main 132 132 _________PO___ -1 20.3075 88.2500 TC 64 20.2000 88.2000 4 2 29
1887264N20088 1887 51 NI BB NOT_NAMED 1887-09-21 18:00:00 TS 20.3391 88.2750 main 142 134 _________OP___ -1 20.4000 88.3000 TC 64 20.2781 88.2500 4 2 34
1887264N20088 1887 51 NI BB NOT_NAMED 1887-09-21 21:00:00 TS 20.4000 88.3250 main 134 123 _________PP___ -1 20.4500 88.3500 TC 64 20.3500 88.3000 4 2 37
1887264N20088 1887 51 NI BB NOT_NAMED 1887-09-22 00:00:00 TS 20.4609 88.3750 main 123 123 _________OP___ -1 20.5000 88.4000 TC 64 20.4219 88.3500 4 2 34
1887264N20088 1887 51 NI BB NOT_NAMED 1887-09-22 03:00:00 TS 20.5462 88.4250 main 123 111 _________PO___ -1 20.5925 88.4500 TC 64 20.5000 88.4000 4 2 27
1887264N20088 1887 51 NI BB NOT_NAMED 1887-09-22 06:00:00 TS 20.6444 88.4770 main 111 100 _________OP___ -1 20.7000 88.5000 TC 64 20.5888 88.4541 4 2 27
1887264N20088 1887 51 NI BB NOT_NAMED 1887-09-22 09:00:00 TS 20.7425 88.5287 main 100 89 _________PP___ -1 20.8000 88.5500 TC 64 20.6850 88.5075 4 2 27
1887264N20088 1887 51 NI BB NOT_NAMED 1887-09-22 12:00:00 TS 20.8444 88.5786 main 90 78 _________OP___ -1 20.9000 88.6000 TC 64 20.7888 88.5572 4 2 26
1887264N20088 1887 51 NI BB NOT_NAMED 1887-09-22 15:00:00 TS 20.9463 88.6287 main 78 59 _________PO___ -1 20.9925 88.6575 TC 56 20.9000 88.6000 4 2 21
1887264N20088 1887 51 NI BB NOT_NAMED 1887-09-22 18:00:00 TS 21.0569 88.6661 main 59 49 _________OP___ -1 21.1000 88.7000 TC 49 21.0137 88.6322 4 2 11
1887264N20088 1887 51 NI BB NOT_NAMED 1887-09-22 21:00:00 TS 21.1887 88.6788 main 49 39 _________PP___ -1 21.2425 88.7000 TC 41 21.1350 88.6575 4 3 0
1887264N20088 1887 51 NI BB NOT_NAMED 1887-09-23 00:00:00 TS 21.3319 88.6895 main 39 22 _________OP___ -1 21.4000 88.7000 TC 34 21.2637 88.6791 4 3 6
1887264N20088 1887 51 NI BB NOT_NAMED 1887-09-23 03:00:00 TS 21.4750 88.7250 main 22 10 _________PO___ -1 21.5500 88.7500 TC 33 21.4000 88.7000 2 3 14
1887264N20088 1887 51 NI BB NOT_NAMED 1887-09-23 06:00:00 TS 21.6194 88.7625 main 10 0 _________OP___ -1 21.7000 88.8000 TC 32 21.5387 88.7250 2 3 9
1887264N20088 1887 51 NI BB NOT_NAMED 1887-09-23 09:00:00 TS 21.7675 88.7750 main 0 0 _________PP___ -1 21.8500 88.8000 TC 31 21.6850 88.7500 2 3 0
1887264N20088 1887 51 NI BB NOT_NAMED 1887-09-23 12:00:00 TS 21.9194 88.7875 main 0 0 _________OP___ -1 22.0000 88.8000 TC 30 21.8387 88.7750 2 3 8
1887264N20088 1887 51 NI BB NOT_NAMED 1887-09-23 15:00:00 TS 22.0713 88.8250 main 0 0 _________PO___ -1 22.1425 88.8500 TC 30 22.0000 88.8000 1 3 12
1887264N20088 1887 51 NI BB NOT_NAMED 1887-09-23 18:00:00 TS 22.2237 88.8605 main 0 0 _________OP___ -1 22.3000 88.9000 TC 30 22.1475 88.8210 1 3 5
1887264N20088 1887 51 NI BB NOT_NAMED 1887-09-23 21:00:00 TS 22.3912 88.8714 main 0 0 _________PP___ -1 22.4775 88.9001 TC 30 22.3050 88.8427 1 4 2
1887264N20088 1887 51 NI BB NOT_NAMED 1887-09-24 00:00:00 TS 22.5925 88.8840 main 0 0 _________OP___ -1 22.7000 88.9000 TC 30 22.4850 88.8679 1 5 5
1887264N20088 1887 51 NI BB NOT_NAMED 1887-09-24 03:00:00 TS 22.8425 88.9212 main 0 0 _________PO___ -1 22.9850 88.9425 TC 30 22.7000 88.9000 1 5 9
1887264N20088 1887 51 NI BB NOT_NAMED 1887-09-24 06:00:00 TS 23.1300 88.9734 main 0 0 _________OP___ -1 23.3000 89.0000 TC 30 22.9600 88.9468 1 6 10
1887264N20088 1887 51 NI BB NOT_NAMED 1887-09-24 09:00:00 TS 23.4275 89.0249 main 0 0 _________PP___ -1 23.6000 89.0500 TC 30 23.2550 88.9998 1 6 9
1887264N20088 1887 51 NI BB NOT_NAMED 1887-09-24 12:00:00 TS 23.7363 89.0765 main 0 0 _________OP___ -1 23.9000 89.1000 TC 30 23.5725 89.0530 1 6 9
1887264N20088 1887 51 NI BB NOT_NAMED 1887-09-24 15:00:00 TS 24.0462 89.1287 main 0 0 _________PO___ -1 24.1925 89.1575 TC 30 23.9000 89.1000 1 7 7
1887264N20088 1887 51 NI BB NOT_NAMED 1887-09-24 18:00:00 TS 24.3792 89.1681 main 0 0 _________OP___ -1 24.5000 89.2000 TC 30 24.2584 89.1363 1 7 5
1887264N20088 1887 51 NI BB NOT_NAMED 1887-09-24 21:00:00 TS 24.7525 89.1863 main 0 0 _________PP___ -1 24.8875 89.2076 TC 30 24.6175 89.1650 1 7 0
1887264N20088 1887 51 NI BB NOT_NAMED 1887-09-25 00:00:00 TS 25.0714 89.1931 main 0 0 _________OP___ -1 25.2000 89.2000 TC 30 24.9428 89.1862 1 5 0
1887264N20088 1887 51 NI BB NOT_NAMED 1887-09-25 03:00:00 TS 25.2437 89.2000 main 0 0 _________PO___ -1 25.2875 89.2000 TC 30 25.2000 89.2000 1 3 2
1887264N20088 1887 51 NI BB NOT_NAMED 1887-09-25 06:00:00 TS 25.3214 89.2036 main 0 0 _________OP___ -1 25.3000 89.2000 TC 30 25.3428 89.2073 1 2 9
1887264N20088 1887 51 NI BB NOT_NAMED 1887-09-25 09:00:00 TS 25.4050 89.2038 main 0 0 _________PP___ -1 25.3925 89.2000 TC 30 25.4175 89.2076 1 2 356
1887264N20088 1887 51 NI BB NOT_NAMED 1887-09-25 12:00:00 TS 25.4792 89.2021 main 0 0 _________OP___ -1 25.5000 89.2000 TC 30 25.4584 89.2041 1 1 0
1887264N20088 1887 51 NI BB NOT_NAMED 1887-09-25 15:00:00 TS 25.5500 89.2000 main 0 0 _________PO___ -1 25.6000 89.2000 TC 30 25.5000 89.2000 1 1 351
1887264N20088 1887 51 NI BB NOT_NAMED 1887-09-25 18:00:00 TS 25.6254 89.1987 main 0 0 _________OP___ -1 25.7000 89.2000 TC 30 25.5694 89.1978 1 2 0
1887264N20088 1887 51 NI BB NOT_NAMED 1887-09-25 21:00:00 TS 25.7190 89.1985 main 0 0 _________PP___ -1 25.8000 89.2000 TC 30 25.6650 89.1975 1 2 4
1887264N20088 1887 51 NI BB NOT_NAMED 1887-09-26 00:00:00 TS 25.8188 89.1989 main 0 0 _________OP___ -1 25.9000 89.2000 TC 30 25.7781 89.1984 1 2 3
1887264N20088 1887 51 NI BB NOT_NAMED 1887-09-26 03:00:00 NR 25.9000 89.2000 main 0 __________O___ -1 TC 25.9000 89.2000 1 2 0

About IBTrACS Database

This database is a web-friendly format of International Best Track Archive for Climate Stewardship (IBTrACS), a global best track data archive curated by NOAA dating back to 1842.

Updated: 2021-12-03